Time;durP1;ratioP1;P1;durP2;ratioP2;P2;SDS_P1;SDS_P2;PMS_P1;PMS_P2;Temp;Humidity;BMP_temperature;BMP_pressure;BME280_temperature;BME280_humidity;BME280_pressure;Samples;Min_cycle;Max_cycle;Signal;HPM_P1;HPM_P2
2023/12/05 00:00:27;;;;;;;16.73;10.20;;;0.30;99.90;;;;;;4987949;28;20198;-57
2023/12/05 00:02:53;;;;;;;23.13;11.50;;;0.30;99.90;;;;;;4986970;28;20239;-59
2023/12/05 00:05:19;;;;;;;19.47;10.50;;;0.30;99.90;;;;;;4991295;28;20453;-58
2023/12/05 00:07:44;;;;;;;21.87;11.70;;;0.30;99.90;;;;;;4986820;28;20186;-58
2023/12/05 00:10:10;;;;;;;24.33;13.00;;;0.30;99.90;;;;;;4984873;28;20238;-58
2023/12/05 00:12:36;;;;;;;23.20;12.83;;;0.30;99.90;;;;;;4987520;28;20216;-59
2023/12/05 00:15:01;;;;;;;22.50;10.93;;;0.30;99.90;;;;;;4985466;28;20195;-59
2023/12/05 00:17:27;;;;;;;23.37;12.57;;;0.30;99.90;;;;;;4984518;28;20179;-58
2023/12/05 00:19:52;;;;;;;22.30;12.03;;;0.30;99.90;;;;;;4986161;28;20971;-58
2023/12/05 00:22:18;;;;;;;20.00;11.20;;;0.30;99.90;;;;;;4990464;28;20242;-59
2023/12/05 00:24:44;;;;;;;24.47;12.90;;;0.30;99.90;;;;;;4984224;28;20185;-58
2023/12/05 00:27:09;;;;;;;22.27;11.80;;;0.30;99.90;;;;;;4988000;28;20229;-58
2023/12/05 00:29:37;;;;;;;22.60;11.90;;;0.30;99.90;;;;;;4987948;28;20484;-58
2023/12/05 00:32:03;;;;;;;19.60;11.53;;;0.30;99.90;;;;;;4986177;28;20233;-59
2023/12/05 00:34:29;;;;;;;20.50;10.60;;;0.30;99.90;;;;;;4986309;28;20438;-60
2023/12/05 00:36:54;;;;;;;23.20;12.27;;;0.30;99.90;;;;;;4987807;28;20420;-59
2023/12/05 00:39:20;;;;;;;22.37;12.40;;;0.30;99.90;;;;;;4990675;28;20190;-59
2023/12/05 00:41:46;;;;;;;23.60;11.53;;;0.30;99.90;;;;;;4982037;28;20202;-59
2023/12/05 00:44:12;;;;;;;21.30;11.50;;;0.30;99.90;;;;;;4985517;28;20851;-58
2023/12/05 00:46:38;;;;;;;20.83;11.40;;;0.30;99.90;;;;;;4991546;28;20508;-59
2023/12/05 00:49:04;;;;;;;25.83;12.93;;;0.30;99.90;;;;;;4988678;28;20250;-59
2023/12/05 00:51:29;;;;;;;19.30;11.90;;;0.30;99.90;;;;;;4987765;28;20184;-59
2023/12/05 00:53:55;;;;;;;22.80;11.53;;;0.30;99.90;;;;;;4992012;28;20199;-58
2023/12/05 00:56:21;;;;;;;23.80;11.73;;;0.30;99.90;;;;;;4991690;28;20230;-56
2023/12/05 00:58:47;;;;;;;22.00;11.57;;;0.30;99.90;;;;;;4987849;28;20623;-59
2023/12/05 01:01:13;;;;;;;24.73;11.63;;;0.30;99.90;;;;;;4989491;28;20185;-58
2023/12/05 01:03:38;;;;;;;19.83;11.03;;;0.30;99.90;;;;;;4990724;28;20449;-59
2023/12/05 01:06:04;;;;;;;22.63;12.13;;;0.30;99.90;;;;;;4991579;28;20410;-58
2023/12/05 01:08:30;;;;;;;24.33;12.70;;;0.30;99.90;;;;;;4987061;28;20238;-57
2023/12/05 01:10:56;;;;;;;25.10;12.67;;;0.30;99.90;;;;;;4988198;28;20458;-58
2023/12/05 01:13:21;;;;;;;26.27;13.40;;;0.30;99.90;;;;;;4992194;28;20187;-58
2023/12/05 01:15:47;;;;;;;26.40;13.93;;;0.30;99.90;;;;;;4990894;28;20187;-58
2023/12/05 01:18:13;;;;;;;25.00;13.23;;;0.30;99.90;;;;;;4988316;28;20191;-58
2023/12/05 01:20:39;;;;;;;25.63;13.73;;;0.30;99.90;;;;;;4988617;28;20414;-58
2023/12/05 01:23:04;;;;;;;25.43;13.57;;;0.30;99.90;;;;;;4990787;28;20196;-58
2023/12/05 01:25:30;;;;;;;28.47;14.63;;;0.30;99.90;;;;;;4990158;28;20295;-58
2023/12/05 01:27:55;;;;;;;26.23;14.57;;;0.30;99.90;;;;;;4987118;28;20187;-59
2023/12/05 01:30:21;;;;;;;23.23;13.47;;;0.30;99.90;;;;;;4994066;28;20842;-58
2023/12/05 01:32:46;;;;;;;27.30;13.43;;;0.30;99.90;;;;;;4987761;28;20223;-59
2023/12/05 01:35:12;;;;;;;28.00;14.13;;;0.30;99.90;;;;;;4990727;28;20183;-58
2023/12/05 01:37:38;;;;;;;28.23;14.30;;;0.30;99.90;;;;;;4989410;28;20179;-58
2023/12/05 01:40:05;;;;;;;30.43;14.47;;;0.30;99.90;;;;;;4991177;28;20194;-58
2023/12/05 01:42:35;;;;;;;30.47;13.40;;;0.30;99.90;;;;;;4990442;28;20216;-58
2023/12/05 01:45:01;;;;;;;24.47;13.77;;;0.30;99.90;;;;;;4987092;28;20436;-58
2023/12/05 01:47:27;;;;;;;24.13;13.23;;;0.30;99.90;;;;;;4991787;28;20424;-60
2023/12/05 01:49:52;;;;;;;32.30;14.90;;;0.30;99.90;;;;;;4990153;28;20202;-58
2023/12/05 01:52:19;;;;;;;27.03;13.10;;;0.30;99.90;;;;;;4989170;28;20464;-58
2023/12/05 01:54:45;;;;;;;28.10;14.00;;;0.30;99.90;;;;;;4987739;28;20180;-59
2023/12/05 01:57:10;;;;;;;29.83;14.90;;;0.30;99.90;;;;;;4985763;28;20513;-58
2023/12/05 01:59:36;;;;;;;28.40;14.00;;;0.30;99.90;;;;;;4990107;28;20229;-58
2023/12/05 02:02:02;;;;;;;30.57;15.50;;;0.30;99.90;;;;;;4988838;28;20468;-58
2023/12/05 02:04:29;;;;;;;26.83;13.90;;;0.30;99.90;;;;;;4989483;28;20925;-57
2023/12/05 02:06:55;;;;;;;30.47;15.10;;;0.30;99.90;;;;;;4987305;28;20435;-58
2023/12/05 02:09:22;;;;;;;30.27;14.30;;;0.30;99.90;;;;;;4990123;28;20450;-57
2023/12/05 02:11:48;;;;;;;26.07;14.80;;;0.30;99.90;;;;;;4989331;28;20235;-58
2023/12/05 02:14:14;;;;;;;28.97;14.47;;;0.30;99.90;;;;;;4985932;28;20474;-58
2023/12/05 02:16:56;;;;;;;26.20;13.13;;;0.30;99.90;;;;;;4990374;28;20407;-58
2023/12/05 02:19:46;;;;;;;24.57;14.00;;;0.30;99.90;;;;;;4987585;28;20210;-59
2023/12/05 02:22:29;;;;;;;24.90;13.20;;;0.30;99.90;;;;;;4987389;28;20474;-59
2023/12/05 02:25:06;;;;;;;27.73;14.30;;;0.30;99.90;;;;;;4988661;28;20453;-58
2023/12/05 02:27:38;;;;;;;27.87;12.73;;;0.30;99.90;;;;;;4989582;28;20493;-58
2023/12/05 02:30:05;;;;;;;24.20;13.40;;;0.30;99.90;;;;;;4989397;28;20460;-58
2023/12/05 02:32:30;;;;;;;30.23;14.70;;;0.30;99.90;;;;;;4987830;28;20489;-59
2023/12/05 02:34:56;;;;;;;25.80;14.13;;;0.40;99.90;;;;;;4986888;28;20944;-59
2023/12/05 02:37:38;;;;;;;29.50;14.43;;;0.40;99.90;;;;;;4987689;28;20168;-58
2023/12/05 02:40:27;;;;;;;31.97;14.20;;;0.40;99.90;;;;;;4994018;28;20183;-57
2023/12/05 02:42:56;;;;;;;27.30;13.60;;;0.40;99.90;;;;;;4988060;28;20435;-58
2023/12/05 02:45:28;;;;;;;25.70;13.60;;;0.40;99.90;;;;;;4984551;28;20471;-57
2023/12/05 02:47:55;;;;;;;25.07;12.50;;;0.40;99.90;;;;;;4982422;28;20435;-57
2023/12/05 02:50:21;;;;;;;27.73;13.57;;;0.50;99.90;;;;;;4988115;28;20523;-59
2023/12/05 02:52:47;;;;;;;24.13;12.87;;;0.50;99.90;;;;;;4986139;28;20531;-58
2023/12/05 02:55:13;;;;;;;25.23;14.17;;;0.50;99.90;;;;;;4987329;28;20182;-58
2023/12/05 02:57:38;;;;;;;28.13;12.50;;;0.50;99.90;;;;;;4984783;28;20169;-58
2023/12/05 03:00:06;;;;;;;24.50;13.57;;;0.50;99.90;;;;;;4987692;28;20785;-58
2023/12/05 03:02:31;;;;;;;24.33;12.90;;;0.50;99.90;;;;;;4987609;28;20281;-58
2023/12/05 03:04:57;;;;;;;25.47;13.00;;;0.50;99.90;;;;;;4988325;28;20462;-58
2023/12/05 03:07:22;;;;;;;23.40;12.67;;;0.50;99.90;;;;;;4986216;28;20183;-58
2023/12/05 03:09:48;;;;;;;28.43;12.53;;;0.50;99.90;;;;;;4989104;28;20195;-58
2023/12/05 03:12:14;;;;;;;20.07;12.20;;;0.60;99.90;;;;;;4990502;28;20200;-59
2023/12/05 03:14:39;;;;;;;23.47;13.67;;;0.50;99.90;;;;;;4989358;28;20265;-59
2023/12/05 03:17:05;;;;;;;26.10;12.27;;;0.60;99.90;;;;;;4987390;28;20198;-58
2023/12/05 03:19:30;;;;;;;23.43;13.10;;;0.60;99.90;;;;;;4988280;28;20182;-58
2023/12/05 03:21:56;;;;;;;26.70;12.43;;;0.60;99.90;;;;;;4988487;28;20175;-58
2023/12/05 03:24:22;;;;;;;19.53;12.00;;;0.60;99.90;;;;;;4986510;28;20234;-57
2023/12/05 03:26:47;;;;;;;21.67;11.53;;;0.60;99.90;;;;;;4984080;28;20199;-58
2023/12/05 03:29:13;;;;;;;20.17;11.67;;;0.60;99.90;;;;;;4991305;28;20206;-58
2023/12/05 03:31:42;;;;;;;18.57;11.07;;;0.60;99.90;;;;;;4986362;28;20179;-58
2023/12/05 03:34:08;;;;;;;23.43;11.97;;;0.60;99.90;;;;;;4988309;28;20828;-58
2023/12/05 03:36:33;;;;;;;20.50;11.83;;;0.60;99.90;;;;;;4988582;28;20494;-58
2023/12/05 03:38:59;;;;;;;21.30;11.63;;;0.60;99.90;;;;;;4986833;28;20176;-58
2023/12/05 03:41:25;;;;;;;21.10;11.77;;;0.60;99.90;;;;;;4989032;28;20172;-58
2023/12/05 03:43:51;;;;;;;21.13;12.00;;;0.60;99.90;;;;;;4986286;28;20670;-58
2023/12/05 03:46:16;;;;;;;19.97;11.67;;;0.60;99.90;;;;;;4989440;28;20187;-58
2023/12/05 03:48:42;;;;;;;20.53;11.83;;;0.60;99.90;;;;;;4989626;28;20174;-58
2023/12/05 03:51:08;;;;;;;28.10;14.60;;;0.60;99.90;;;;;;4984477;28;20216;-58
2023/12/05 03:53:33;;;;;;;22.73;11.70;;;0.60;99.90;;;;;;4984090;28;20206;-56
2023/12/05 03:55:59;;;;;;;19.27;12.17;;;0.60;99.90;;;;;;4987176;28;20196;-58
2023/12/05 03:58:24;;;;;;;28.30;11.80;;;0.60;99.90;;;;;;4987237;28;20211;-58
2023/12/05 04:00:50;;;;;;;21.10;11.33;;;0.60;99.90;;;;;;4987443;28;20184;-57
2023/12/05 04:03:16;;;;;;;22.00;11.87;;;0.60;99.90;;;;;;4990237;28;20686;-58
2023/12/05 04:05:41;;;;;;;21.40;11.40;;;0.60;99.90;;;;;;4986761;28;20212;-58
2023/12/05 04:08:07;;;;;;;23.30;11.53;;;0.60;99.90;;;;;;4987911;28;20203;-58
2023/12/05 04:10:33;;;;;;;21.93;11.60;;;0.60;99.90;;;;;;4985714;28;20291;-58
2023/12/05 04:12:58;;;;;;;20.67;11.67;;;0.60;99.90;;;;;;4987487;28;20195;-59
2023/12/05 04:15:24;;;;;;;19.20;10.10;;;0.60;99.90;;;;;;4986224;28;20182;-58
2023/12/05 04:17:50;;;;;;;18.33;10.07;;;0.60;99.90;;;;;;4987097;28;20230;-58
2023/12/05 04:20:17;;;;;;;19.57;10.73;;;0.60;99.90;;;;;;4986823;28;20187;-59
2023/12/05 04:22:43;;;;;;;23.03;11.40;;;0.70;99.90;;;;;;4989195;28;20701;-58
2023/12/05 04:25:09;;;;;;;19.23;11.10;;;0.70;99.90;;;;;;4982314;28;20431;-58
2023/12/05 04:27:34;;;;;;;20.57;11.07;;;0.70;99.90;;;;;;4986128;28;20435;-57
2023/12/05 04:30:00;;;;;;;21.60;10.93;;;0.70;99.90;;;;;;4986819;28;20460;-57
2023/12/05 04:32:26;;;;;;;22.27;11.70;;;0.70;99.90;;;;;;4985447;28;20702;-58
2023/12/05 04:34:51;;;;;;;17.93;11.23;;;0.70;99.90;;;;;;4987028;28;20173;-58
2023/12/05 04:37:17;;;;;;;24.07;12.07;;;0.70;99.90;;;;;;4986350;28;20171;-57
2023/12/05 04:39:42;;;;;;;19.70;12.10;;;0.70;99.90;;;;;;4987662;28;20176;-58
2023/12/05 04:42:08;;;;;;;23.40;13.40;;;0.80;99.90;;;;;;4987949;28;20203;-59
2023/12/05 04:44:34;;;;;;;19.33;11.83;;;0.80;99.90;;;;;;4985041;28;20187;-55
2023/12/05 04:47:01;;;;;;;21.47;10.90;;;0.80;99.90;;;;;;4987897;28;20752;-59
2023/12/05 04:49:27;;;;;;;21.17;11.37;;;0.80;99.90;;;;;;4987115;28;20222;-58
2023/12/05 04:51:53;;;;;;;21.73;11.30;;;0.80;99.90;;;;;;4982148;28;20812;-58
2023/12/05 04:54:19;;;;;;;20.00;10.83;;;0.80;99.90;;;;;;4984248;28;20179;-59
2023/12/05 04:56:44;;;;;;;19.73;11.27;;;0.80;99.90;;;;;;4987004;28;20415;-58
2023/12/05 04:59:10;;;;;;;20.90;11.27;;;0.80;99.90;;;;;;4984261;28;20269;-57
2023/12/05 05:01:36;;;;;;;21.23;12.03;;;0.80;99.90;;;;;;4967477;28;20182;-58
2023/12/05 05:04:01;;;;;;;23.47;11.73;;;0.80;99.90;;;;;;4982096;28;20293;-57
2023/12/05 05:06:27;;;;;;;25.97;12.97;;;0.80;99.90;;;;;;4984018;28;20174;-56
2023/12/05 05:08:53;;;;;;;23.70;12.23;;;0.80;99.90;;;;;;4979206;28;20416;-55
2023/12/05 05:11:18;;;;;;;22.37;11.07;;;0.90;99.90;;;;;;4977347;28;20429;-57
2023/12/05 05:13:44;;;;;;;20.03;11.40;;;0.90;99.90;;;;;;4978034;28;20207;-57
2023/12/05 05:16:10;;;;;;;22.90;11.67;;;0.90;99.90;;;;;;4980091;28;20187;-58
2023/12/05 05:18:37;;;;;;;20.63;12.07;;;0.90;99.90;;;;;;4980448;28;20199;-58
2023/12/05 05:21:06;;;;;;;22.67;12.60;;;0.90;99.90;;;;;;4975854;28;20537;-57
2023/12/05 05:23:35;;;;;;;20.67;11.30;;;0.90;99.90;;;;;;4979824;28;20493;-57
2023/12/05 05:26:00;;;;;;;21.53;12.17;;;0.80;99.90;;;;;;4972949;28;20470;-57
2023/12/05 05:28:27;;;;;;;21.80;11.73;;;0.90;99.90;;;;;;4978020;28;20483;-57
2023/12/05 05:30:54;;;;;;;24.53;11.67;;;0.90;99.90;;;;;;4981109;28;20241;-58
2023/12/05 05:33:21;;;;;;;17.30;11.03;;;0.90;99.90;;;;;;4981163;28;20495;-55
2023/12/05 05:35:47;;;;;;;17.80;10.47;;;0.90;99.90;;;;;;4986889;28;20510;-58
2023/12/05 05:38:12;;;;;;;18.87;10.63;;;0.90;99.90;;;;;;4986050;28;20558;-57
2023/12/05 05:40:39;;;;;;;19.97;10.40;;;0.90;99.90;;;;;;4983353;28;20184;-56
2023/12/05 05:43:05;;;;;;;20.20;11.40;;;0.90;99.90;;;;;;4980955;28;20282;-57
2023/12/05 05:45:30;;;;;;;18.50;10.00;;;0.90;99.90;;;;;;4983660;28;20523;-55
2023/12/05 05:47:56;;;;;;;19.23;10.00;;;0.90;99.90;;;;;;4986725;28;20306;-58
2023/12/05 05:50:22;;;;;;;21.03;11.30;;;0.80;99.90;;;;;;4985000;28;20233;-57
2023/12/05 05:52:48;;;;;;;21.60;11.00;;;0.80;99.90;;;;;;4977667;28;20482;-57
2023/12/05 05:55:13;;;;;;;19.93;11.13;;;0.80;99.90;;;;;;4984788;28;20175;-57
2023/12/05 05:57:39;;;;;;;21.03;11.43;;;0.80;99.90;;;;;;4985964;28;20186;-57
2023/12/05 06:00:05;;;;;;;20.37;11.47;;;0.80;99.90;;;;;;4987125;28;20687;-57
2023/12/05 06:02:31;;;;;;;21.10;10.77;;;0.80;99.90;;;;;;4983460;28;20279;-58
2023/12/05 06:04:57;;;;;;;31.77;12.77;;;0.80;99.90;;;;;;4985049;28;20525;-58
2023/12/05 06:07:23;;;;;;;25.23;12.97;;;0.70;99.90;;;;;;4990468;28;20180;-58
2023/12/05 06:09:49;;;;;;;24.43;12.37;;;0.80;99.90;;;;;;4985147;28;20615;-57
2023/12/05 06:12:15;;;;;;;24.33;12.17;;;0.80;99.90;;;;;;4988165;28;20470;-57
2023/12/05 06:14:41;;;;;;;24.20;12.07;;;0.80;99.90;;;;;;4995761;28;20498;-57
2023/12/05 06:17:06;;;;;;;23.23;11.63;;;0.80;99.90;;;;;;4988440;28;20179;-58
2023/12/05 06:19:32;;;;;;;22.90;11.40;;;0.80;99.90;;;;;;4986003;28;20183;-58
2023/12/05 06:21:57;;;;;;;25.57;12.20;;;0.80;99.90;;;;;;4988895;28;20208;-58
2023/12/05 06:24:23;;;;;;;34.63;12.30;;;0.80;99.90;;;;;;4987526;28;20278;-57
2023/12/05 06:26:49;;;;;;;22.87;11.07;;;0.80;99.90;;;;;;4986769;28;20181;-57
2023/12/05 06:29:14;;;;;;;24.53;13.30;;;0.80;99.90;;;;;;4989256;28;20681;-58
2023/12/05 06:31:40;;;;;;;28.90;13.00;;;0.80;99.90;;;;;;4983040;28;20210;-58
2023/12/05 06:34:06;;;;;;;21.97;10.83;;;0.80;99.90;;;;;;4987248;28;20250;-58
2023/12/05 06:36:32;;;;;;;26.10;12.70;;;0.80;99.90;;;;;;4989909;28;20187;-57
2023/12/05 06:38:57;;;;;;;22.00;11.97;;;0.80;99.90;;;;;;4987587;28;20434;-58
2023/12/05 06:41:23;;;;;;;25.23;12.77;;;0.80;99.90;;;;;;4988669;28;20176;-58
2023/12/05 06:43:48;;;;;;;24.10;12.50;;;0.80;99.90;;;;;;4989128;28;20204;-57
2023/12/05 06:46:14;;;;;;;23.17;11.73;;;0.80;99.90;;;;;;4986907;28;20172;-58
2023/12/05 06:48:39;;;;;;;22.83;11.77;;;0.80;99.90;;;;;;4988896;28;20172;-58
2023/12/05 06:51:05;;;;;;;26.97;13.23;;;0.80;99.90;;;;;;4987518;28;20220;-57
2023/12/05 06:53:31;;;;;;;28.47;12.93;;;0.70;99.90;;;;;;4990595;28;20225;-56
2023/12/05 06:55:56;;;;;;;28.53;14.30;;;0.80;99.90;;;;;;4986679;28;20235;-58
2023/12/05 06:58:22;;;;;;;25.47;12.70;;;0.80;99.90;;;;;;4989378;28;20176;-58
2023/12/05 07:00:48;;;;;;;24.70;12.23;;;0.80;99.90;;;;;;4986209;28;20180;-57
2023/12/05 07:03:15;;;;;;;28.27;13.47;;;0.80;99.90;;;;;;4987835;28;20201;-58
2023/12/05 07:05:41;;;;;;;17.67;9.90;;;0.80;99.90;;;;;;4986208;28;21092;-57
2023/12/05 07:08:07;;;;;;;20.37;10.50;;;0.80;99.90;;;;;;4987278;28;20431;-57
2023/12/05 07:10:33;;;;;;;25.93;12.07;;;0.80;99.90;;;;;;4993152;28;20211;-57
2023/12/05 07:12:58;;;;;;;27.07;11.97;;;0.80;99.90;;;;;;4986948;28;20461;-58
2023/12/05 07:15:24;;;;;;;34.77;13.90;;;0.80;99.90;;;;;;4989060;28;20427;-58
2023/12/05 07:17:50;;;;;;;26.67;12.60;;;0.90;99.90;;;;;;4985699;28;20257;-55
2023/12/05 07:20:15;;;;;;;26.23;13.03;;;0.80;99.90;;;;;;4984837;28;20191;-59
2023/12/05 07:22:42;;;;;;;24.63;12.43;;;0.90;99.90;;;;;;4986102;28;20261;-59
2023/12/05 07:25:08;;;;;;;23.30;11.30;;;0.90;99.90;;;;;;4989329;28;20207;-58
2023/12/05 07:27:35;;;;;;;21.67;11.90;;;0.80;99.90;;;;;;4988996;28;20422;-58
2023/12/05 07:30:01;;;;;;;21.83;11.70;;;0.80;99.90;;;;;;4987696;28;20193;-57
2023/12/05 07:32:26;;;;;;;26.40;12.30;;;0.80;99.90;;;;;;4980649;28;20470;-54
2023/12/05 07:34:52;;;;;;;26.40;12.87;;;0.80;99.90;;;;;;4980450;28;20181;-59
2023/12/05 07:37:18;;;;;;;28.30;13.90;;;0.90;99.90;;;;;;4987794;28;20187;-60
2023/12/05 07:39:43;;;;;;;28.23;13.70;;;0.90;99.90;;;;;;4989696;28;20219;-59
2023/12/05 07:42:09;;;;;;;33.77;13.80;;;0.90;99.90;;;;;;4987232;28;20471;-60
2023/12/05 07:44:35;;;;;;;26.80;12.97;;;1.00;99.90;;;;;;4993037;28;20610;-59
2023/12/05 07:47:00;;;;;;;23.17;11.73;;;1.10;99.90;;;;;;4988413;28;20169;-60
2023/12/05 07:49:26;;;;;;;21.33;11.50;;;1.00;99.90;;;;;;4984858;28;20690;-60
2023/12/05 07:51:51;;;;;;;23.63;11.60;;;1.10;99.90;;;;;;4985673;28;20190;-58
2023/12/05 07:54:17;;;;;;;28.27;12.80;;;1.10;99.90;;;;;;4988107;28;20186;-59
2023/12/05 07:56:43;;;;;;;25.70;11.90;;;1.20;99.90;;;;;;4982503;28;20170;-60
2023/12/05 07:59:09;;;;;;;31.80;12.73;;;1.20;99.90;;;;;;4982584;28;20596;-60
2023/12/05 08:01:34;;;;;;;25.00;11.10;;;1.30;99.90;;;;;;4984441;28;20233;-60
2023/12/05 08:04:02;;;;;;;26.30;12.23;;;1.30;99.90;;;;;;4985546;28;20455;-61
2023/12/05 08:06:27;;;;;;;21.93;11.40;;;1.40;99.90;;;;;;4987528;28;20180;-60
2023/12/05 08:08:53;;;;;;;20.93;10.40;;;1.40;99.90;;;;;;4987082;28;20422;-60
2023/12/05 08:11:22;;;;;;;22.50;11.60;;;1.40;99.90;;;;;;4987744;28;20287;-59
2023/12/05 08:13:47;;;;;;;22.60;11.10;;;1.40;99.90;;;;;;4982682;28;20227;-60
2023/12/05 08:16:13;;;;;;;15.07;9.57;;;1.40;99.90;;;;;;4984072;28;21004;-58
2023/12/05 08:18:39;;;;;;;20.00;10.13;;;1.40;99.90;;;;;;4988671;28;20183;-59
2023/12/05 08:21:05;;;;;;;16.90;9.63;;;1.40;99.90;;;;;;4986585;28;20667;-59
2023/12/05 08:23:31;;;;;;;16.63;9.60;;;1.40;99.90;;;;;;4984656;28;20197;-59
2023/12/05 08:25:56;;;;;;;18.10;8.87;;;1.40;99.90;;;;;;4984655;28;20443;-59
2023/12/05 08:28:22;;;;;;;19.20;9.10;;;1.40;99.90;;;;;;4987627;28;20184;-59
2023/12/05 08:30:47;;;;;;;17.43;9.23;;;1.40;99.90;;;;;;4983892;28;20443;-59
2023/12/05 08:33:14;;;;;;;20.00;10.90;;;1.40;99.90;;;;;;4987347;28;20801;-59
2023/12/05 08:35:39;;;;;;;21.80;10.70;;;1.40;99.90;;;;;;4991021;28;20738;-58
2023/12/05 08:38:05;;;;;;;20.50;9.60;;;1.50;99.90;;;;;;4984898;28;20440;-59
2023/12/05 08:40:30;;;;;;;17.87;9.83;;;1.50;99.90;;;;;;4987760;28;20400;-59
2023/12/05 08:42:56;;;;;;;20.63;10.80;;;1.50;99.90;;;;;;4981488;28;20201;-59
2023/12/05 08:45:22;;;;;;;18.33;9.53;;;1.50;99.90;;;;;;4988190;28;20184;-59
2023/12/05 08:47:52;;;;;;;23.53;9.90;;;1.50;99.90;;;;;;4986768;28;20188;-59
2023/12/05 08:50:18;;;;;;;20.67;10.80;;;1.50;99.90;;;;;;4986189;28;20294;-59
2023/12/05 08:52:44;;;;;;;18.27;10.50;;;1.50;99.90;;;;;;4988184;28;20462;-59
2023/12/05 08:55:10;;;;;;;20.07;11.03;;;1.50;99.90;;;;;;4988142;28;20343;-59
2023/12/05 08:57:36;;;;;;;19.03;11.20;;;1.60;99.90;;;;;;4986662;28;21008;-57
2023/12/05 09:00:05;;;;;;;24.80;12.27;;;1.60;99.90;;;;;;4981667;28;20805;-59
2023/12/05 09:02:31;;;;;;;23.83;11.83;;;1.60;99.90;;;;;;4985556;28;20439;-58
2023/12/05 09:04:57;;;;;;;24.07;10.70;;;1.60;99.90;;;;;;4989607;28;20501;-58
2023/12/05 09:07:23;;;;;;;21.67;11.50;;;1.70;99.90;;;;;;4995395;28;20499;-59
2023/12/05 09:09:49;;;;;;;21.73;11.50;;;1.70;99.90;;;;;;4987599;28;20989;-59
2023/12/05 09:12:15;;;;;;;24.70;12.47;;;1.70;99.90;;;;;;4991890;28;20198;-59
2023/12/05 09:14:42;;;;;;;23.57;12.40;;;1.70;99.90;;;;;;4990935;28;20183;-59
2023/12/05 09:17:09;;;;;;;25.50;13.80;;;1.60;99.90;;;;;;4989252;28;20698;-59
2023/12/05 09:19:35;;;;;;;21.90;12.70;;;1.60;99.90;;;;;;4990347;28;20497;-57
2023/12/05 09:22:01;;;;;;;23.63;13.63;;;1.70;99.90;;;;;;4988690;28;20445;-59
2023/12/05 09:24:26;;;;;;;27.53;14.60;;;1.70;99.90;;;;;;4989290;28;20511;-56
2023/12/05 09:26:52;;;;;;;27.30;13.20;;;1.70;99.90;;;;;;4987135;28;20177;-58
2023/12/05 09:29:18;;;;;;;24.90;12.23;;;1.70;99.90;;;;;;4989702;28;20263;-58
2023/12/05 09:31:44;;;;;;;22.57;11.83;;;1.80;99.90;;;;;;4988052;28;20181;-58
2023/12/05 09:34:09;;;;;;;23.60;10.87;;;1.80;99.90;;;;;;4990284;28;20455;-59
2023/12/05 09:36:35;;;;;;;22.40;10.80;;;1.90;99.90;;;;;;4987044;28;20670;-58
2023/12/05 09:39:00;;;;;;;22.53;10.90;;;1.90;99.90;;;;;;4989370;28;20170;-59
2023/12/05 09:41:27;;;;;;;19.70;10.70;;;2.00;99.90;;;;;;4988853;28;20184;-58
2023/12/05 09:43:54;;;;;;;14.80;8.10;;;2.00;99.90;;;;;;4992022;28;20320;-59
2023/12/05 09:46:25;;;;;;;11.67;7.00;;;2.10;99.90;;;;;;4988545;28;20432;-60
2023/12/05 09:48:55;;;;;;;10.80;6.33;;;2.10;99.90;;;;;;4988665;28;20432;-59
2023/12/05 09:51:22;;;;;;;8.00;5.57;;;2.20;99.90;;;;;;4988425;28;20603;-60
2023/12/05 09:53:48;;;;;;;8.63;5.20;;;2.20;99.90;;;;;;4990021;28;20950;-58
2023/12/05 09:56:14;;;;;;;10.40;5.70;;;2.30;99.90;;;;;;4984635;28;20482;-60
2023/12/05 09:58:45;;;;;;;11.00;6.17;;;2.30;99.90;;;;;;4984469;28;20436;-60
2023/12/05 10:01:15;;;;;;;8.87;5.17;;;2.30;99.90;;;;;;4984491;28;20467;-59
2023/12/05 10:03:42;;;;;;;10.93;6.03;;;2.40;99.90;;;;;;4983729;28;20455;-60
2023/12/05 10:06:10;;;;;;;11.90;7.13;;;2.40;99.90;;;;;;4988564;28;20510;-61
2023/12/05 10:08:37;;;;;;;13.47;7.10;;;2.40;99.90;;;;;;4988315;28;20418;-60
2023/12/05 10:11:04;;;;;;;11.97;6.33;;;2.40;99.90;;;;;;4983500;28;20464;-59
2023/12/05 10:13:31;;;;;;;12.43;6.10;;;2.40;99.90;;;;;;4986055;28;20456;-60
2023/12/05 10:15:58;;;;;;;8.60;5.00;;;2.50;99.90;;;;;;4989399;28;20965;-60
2023/12/05 10:18:25;;;;;;;10.03;5.57;;;2.60;99.90;;;;;;4985292;28;20524;-61
2023/12/05 10:20:51;;;;;;;11.40;5.53;;;2.80;99.90;;;;;;4985552;28;20959;-60
2023/12/05 10:23:18;;;;;;;13.70;5.70;;;2.90;99.90;;;;;;4990105;28;20448;-60
2023/12/05 10:25:44;;;;;;;9.30;5.27;;;2.90;99.90;;;;;;4988267;28;20240;-60
2023/12/05 10:28:11;;;;;;;13.60;5.40;;;2.90;99.90;;;;;;4988919;28;20448;-60
2023/12/05 10:30:39;;;;;;;7.93;5.13;;;2.90;99.90;;;;;;4987277;28;20497;-60
2023/12/05 10:33:23;;;;;;;10.60;5.83;;;2.90;99.90;;;;;;4981060;28;20486;-60
2023/12/05 10:35:49;;;;;;;20.67;6.23;;;3.00;99.90;;;;;;4984440;28;20435;-60
2023/12/05 10:38:19;;;;;;;11.53;6.67;;;3.00;99.90;;;;;;4986892;28;20404;-59
2023/12/05 10:40:52;;;;;;;16.00;6.13;;;3.10;99.90;;;;;;4981403;28;20220;-55
2023/12/05 10:43:19;;;;;;;10.97;6.20;;;3.20;99.90;;;;;;4987686;28;20506;-60
2023/12/05 10:45:45;;;;;;;10.83;6.70;;;3.30;99.90;;;;;;4987479;28;20941;-59
2023/12/05 10:48:12;;;;;;;11.70;6.40;;;3.30;99.90;;;;;;4988872;28;20411;-60
2023/12/05 10:50:39;;;;;;;9.00;6.33;;;3.40;99.90;;;;;;4986579;28;20467;-56
2023/12/05 10:53:06;;;;;;;12.17;7.47;;;3.30;99.90;;;;;;4986859;28;20444;-57
2023/12/05 10:55:32;;;;;;;14.73;7.93;;;3.30;99.90;;;;;;4988331;28;20428;-57
2023/12/05 10:58:00;;;;;;;13.27;7.90;;;3.30;99.90;;;;;;4985120;28;20465;-56
2023/12/05 11:00:29;;;;;;;13.10;8.13;;;3.30;99.90;;;;;;4983168;28;20439;-55
2023/12/05 11:02:56;;;;;;;12.80;7.70;;;3.20;99.90;;;;;;4986410;28;20436;-59
2023/12/05 11:05:22;;;;;;;11.33;7.10;;;3.10;99.90;;;;;;4983671;28;20440;-59
2023/12/05 11:07:48;;;;;;;14.10;7.17;;;3.10;99.90;;;;;;4986920;28;20472;-55
2023/12/05 11:10:16;;;;;;;13.30;7.73;;;3.10;99.90;;;;;;4986485;28;20455;-61
2023/12/05 11:12:48;;;;;;;13.50;7.30;;;3.00;99.90;;;;;;4985935;28;20435;-57
2023/12/05 11:15:16;;;;;;;16.30;7.37;;;2.90;99.90;;;;;;4976785;28;20522;-59
2023/12/05 11:17:48;;;;;;;10.30;6.90;;;2.90;99.90;;;;;;4984860;28;20417;-60
2023/12/05 11:20:23;;;;;;;10.47;7.17;;;2.90;99.90;;;;;;4983383;28;20446;-59
2023/12/05 11:23:06;;;;;;;10.80;6.90;;;3.00;99.90;;;;;;4986043;28;20435;-60
2023/12/05 11:25:32;;;;;;;9.50;6.40;;;3.10;99.90;;;;;;4987060;28;20408;-60
2023/12/05 11:28:19;;;;;;;8.97;5.63;;;3.20;99.90;;;;;;4987798;28;20799;-60
2023/12/05 11:31:07;;;;;;;6.93;5.27;;;3.40;99.90;;;;;;4984825;28;20205;-60
2023/12/05 11:34:04;;;;;;;8.20;5.40;;;3.50;99.90;;;;;;4985653;28;20482;-60
2023/12/05 11:36:41;;;;;;;7.30;5.30;;;3.50;99.90;;;;;;4985980;28;20495;-59
2023/12/05 11:39:08;;;;;;;9.87;5.87;;;3.50;99.90;;;;;;4987956;28;20424;-59
2023/12/05 11:41:33;;;;;;;6.17;4.93;;;3.40;99.90;;;;;;4987256;28;20488;-54
2023/12/05 11:44:11;;;;;;;5.23;4.60;;;3.40;99.90;;;;;;4988675;28;20993;-57
2023/12/05 11:46:37;;;;;;;9.27;5.60;;;3.50;99.90;;;;;;4981996;28;20219;-60
2023/12/05 11:49:03;;;;;;;8.10;5.40;;;3.40;99.90;;;;;;4985893;28;20501;-59
2023/12/05 11:51:32;;;;;;;7.50;4.77;;;3.40;99.90;;;;;;4984670;28;20452;-59
2023/12/05 11:54:01;;;;;;;6.23;4.90;;;3.30;99.90;;;;;;4986698;28;20193;-59
2023/12/05 11:56:28;;;;;;;6.10;4.23;;;3.30;99.90;;;;;;4987659;28;20424;-59
2023/12/05 11:59:13;;;;;;;6.30;4.80;;;3.30;99.90;;;;;;4986967;28;20427;-57
2023/12/05 12:01:40;;;;;;;7.67;4.70;;;3.20;99.90;;;;;;4983171;28;20432;-58
2023/12/05 12:04:35;;;;;;;5.63;3.70;;;3.20;99.90;;;;;;4986567;28;20483;-58
2023/12/05 12:07:01;;;;;;;7.90;4.70;;;3.30;99.90;;;;;;4974727;28;20433;-58
2023/12/05 12:09:27;;;;;;;9.13;4.97;;;3.30;99.90;;;;;;4982993;28;20464;-59
2023/12/05 12:11:54;;;;;;;7.83;4.10;;;3.30;99.90;;;;;;4974651;28;20446;-57
2023/12/05 12:14:19;;;;;;;6.13;3.77;;;3.40;99.90;;;;;;4987066;28;20176;-59
2023/12/05 12:16:50;;;;;;;8.90;4.30;;;3.40;99.90;;;;;;4991243;28;20816;-59
2023/12/05 12:19:16;;;;;;;6.47;3.70;;;3.40;99.90;;;;;;4985138;28;20177;-59
2023/12/05 12:21:44;;;;;;;7.70;3.90;;;3.40;99.90;;;;;;4981394;28;20433;-59
2023/12/05 12:24:21;;;;;;;7.63;4.80;;;3.50;99.90;;;;;;4986313;28;20446;-59
2023/12/05 12:26:54;;;;;;;9.53;5.80;;;3.60;99.90;;;;;;4983474;28;20494;-59
2023/12/05 12:29:21;;;;;;;11.00;5.83;;;3.70;99.90;;;;;;4984086;28;20435;-59
2023/12/05 12:31:48;;;;;;;13.00;6.47;;;3.80;99.90;;;;;;4982619;28;20440;-58
2023/12/05 12:34:42;;;;;;;7.40;5.10;;;3.90;99.90;;;;;;4986410;28;20519;-60
2023/12/05 12:37:11;;;;;;;7.67;5.20;;;3.90;99.90;;;;;;4984755;28;20451;-60
2023/12/05 12:39:39;;;;;;;6.67;4.73;;;3.90;99.90;;;;;;4988849;28;21256;-60